createdAt,value
2022-11-10T00:01:10.155Z,11.14
2022-11-10T00:04:16.336Z,11.12
2022-11-10T00:07:26.437Z,11.07
2022-11-10T00:10:33.472Z,11.08
2022-11-10T00:13:58.142Z,11.07
2022-11-10T00:17:04.812Z,11.07
2022-11-10T00:20:12.985Z,11.07
2022-11-10T00:23:19.268Z,11.04
2022-11-10T00:26:26.565Z,11.06
2022-11-10T00:29:33.102Z,11.07
2022-11-10T00:32:39.061Z,11.05
2022-11-10T00:35:45.499Z,11.03
2022-11-10T00:38:52.026Z,11.00
2022-11-10T00:41:58.313Z,10.98
2022-11-10T00:45:05.030Z,10.99
2022-11-10T00:48:11.914Z,10.98
2022-11-10T00:51:25.491Z,10.95
2022-11-10T00:54:31.597Z,10.96
2022-11-10T00:57:37.958Z,10.99
2022-11-10T01:00:44.265Z,10.95
2022-11-10T01:03:51.505Z,10.98
2022-11-10T01:06:57.369Z,10.96
2022-11-10T01:10:04.297Z,10.97
2022-11-10T01:13:10.816Z,10.96
2022-11-10T01:16:19.454Z,10.94
2022-11-10T01:19:44.631Z,10.96
2022-11-10T01:22:51.297Z,10.94
2022-11-10T01:26:08.208Z,10.95
2022-11-10T01:29:14.469Z,10.97
2022-11-10T01:32:20.575Z,10.93
2022-11-10T01:35:26.739Z,10.91
2022-11-10T01:38:35.715Z,10.91
2022-11-10T01:41:41.909Z,10.89
2022-11-10T01:45:25.304Z,10.86
2022-11-10T01:48:44.184Z,10.84
2022-11-10T01:52:00.713Z,10.85
2022-11-10T01:55:07.255Z,10.82
2022-11-10T01:58:16.614Z,10.81
2022-11-10T02:01:23.703Z,10.83
2022-11-10T02:04:30.504Z,10.79
2022-11-10T02:07:36.745Z,10.78
2022-11-10T02:10:42.954Z,10.78
2022-11-10T02:13:49.435Z,10.81
2022-11-10T02:16:56.280Z,10.82
2022-11-10T02:20:06.931Z,10.86
2022-11-10T02:23:34.451Z,10.87
2022-11-10T02:26:46.770Z,10.88
2022-11-10T02:29:53.183Z,10.85
2022-11-10T02:32:59.256Z,10.85
2022-11-10T02:36:05.569Z,10.88
2022-11-10T02:39:11.821Z,10.85
2022-11-10T02:42:18.100Z,10.84
2022-11-10T02:45:24.706Z,10.78
2022-11-10T02:48:31.367Z,10.72
2022-11-10T02:51:37.732Z,10.68
2022-11-10T02:54:44.164Z,10.67
2022-11-10T02:57:50.968Z,10.62
2022-11-10T03:00:57.287Z,10.60
2022-11-10T03:04:05.980Z,10.64
2022-11-10T03:07:12.198Z,10.61
2022-11-10T03:10:18.622Z,10.61
2022-11-10T03:13:32.253Z,10.59
2022-11-10T03:16:51.428Z,10.62
2022-11-10T03:19:57.926Z,10.63
2022-11-10T03:23:05.731Z,10.62
2022-11-10T03:26:11.916Z,10.57
2022-11-10T03:29:18.825Z,10.54
2022-11-10T03:32:25.250Z,10.58
2022-11-10T03:35:32.050Z,10.61
2022-11-10T03:38:38.391Z,10.62
2022-11-10T03:41:44.624Z,10.61
2022-11-10T03:44:50.872Z,10.61
2022-11-10T03:47:56.953Z,10.66
2022-11-10T03:51:03.662Z,10.68
2022-11-10T03:54:09.691Z,10.67
2022-11-10T03:57:16.222Z,10.63
2022-11-10T04:00:22.235Z,10.60
2022-11-10T04:03:28.673Z,10.55
2022-11-10T04:06:53.760Z,10.47
2022-11-10T04:10:00.141Z,10.44
2022-11-10T04:13:25.217Z,10.47
2022-11-10T04:16:31.616Z,10.47
2022-11-10T04:19:38.110Z,10.52
2022-11-10T04:23:02.467Z,10.53
2022-11-10T04:26:28.974Z,10.53
2022-11-10T04:29:34.952Z,10.53
2022-11-10T04:32:41.034Z,10.50
2022-11-10T04:35:47.297Z,10.49
2022-11-10T04:38:55.337Z,10.43
2022-11-10T04:42:03.059Z,10.35
2022-11-10T04:45:10.050Z,10.31
2022-11-10T04:48:16.285Z,10.28
2022-11-10T04:51:25.413Z,10.20
2022-11-10T04:54:31.368Z,10.19
2022-11-10T04:57:37.431Z,10.20
2022-11-10T05:00:43.583Z,10.17
2022-11-10T05:03:50.543Z,10.14
2022-11-10T05:06:57.228Z,10.08
2022-11-10T05:10:04.696Z,10.03
2022-11-10T05:13:11.540Z,10.02
2022-11-10T05:16:17.731Z,9.96
2022-11-10T05:19:23.610Z,9.89
2022-11-10T05:22:29.668Z,9.84
2022-11-10T05:25:38.198Z,9.82
2022-11-10T05:28:45.896Z,9.83
2022-11-10T05:31:52.129Z,9.84
2022-11-10T05:34:58.063Z,9.85
2022-11-10T05:38:05.194Z,9.83
2022-11-10T05:41:11.811Z,9.89
2022-11-10T05:44:18.022Z,9.92
2022-11-10T05:47:24.193Z,9.94
2022-11-10T05:50:30.353Z,9.98
2022-11-10T05:53:36.712Z,10.05
2022-11-10T05:56:42.754Z,10.07
2022-11-10T05:59:49.339Z,10.09
2022-11-10T06:03:02.971Z,10.11
2022-11-10T06:06:09.222Z,10.10
2022-11-10T06:09:15.405Z,10.18
2022-11-10T06:12:21.928Z,10.18
2022-11-10T06:15:28.067Z,10.18
2022-11-10T06:18:34.096Z,10.18
2022-11-10T06:21:40.142Z,10.11
2022-11-10T06:24:46.848Z,10.10
2022-11-10T06:27:52.763Z,10.05
2022-11-10T06:30:59.293Z,10.04
2022-11-10T06:34:05.617Z,10.03
2022-11-10T06:37:11.721Z,10.02
2022-11-10T06:40:17.564Z,10.05
2022-11-10T06:43:24.169Z,10.10
2022-11-10T06:46:30.522Z,10.12
2022-11-10T06:49:36.522Z,10.12
2022-11-10T06:52:42.417Z,10.07
2022-11-10T06:55:48.590Z,10.04
2022-11-10T06:58:54.477Z,10.09
2022-11-10T07:02:00.555Z,9.99
2022-11-10T07:05:06.721Z,9.91
2022-11-10T07:08:16.481Z,9.95
2022-11-10T07:11:22.508Z,10.16
2022-11-10T07:14:28.507Z,10.29
2022-11-10T07:17:41.726Z,10.35
2022-11-10T07:20:47.718Z,10.41
2022-11-10T07:23:53.979Z,10.42
2022-11-10T07:27:00.664Z,10.43
2022-11-10T07:30:07.713Z,10.47
2022-11-10T07:33:14.848Z,10.64
2022-11-10T07:36:20.726Z,11.00
2022-11-10T07:39:26.640Z,11.16
2022-11-10T07:42:32.673Z,11.36
2022-11-10T07:45:39.137Z,11.47
2022-11-10T07:48:45.285Z,11.41
2022-11-10T07:51:51.521Z,11.36
2022-11-10T07:54:58.031Z,11.27
2022-11-10T07:58:04.866Z,11.16
2022-11-10T08:01:11.032Z,11.15
2022-11-10T08:04:17.371Z,11.11
2022-11-10T08:07:23.490Z,11.06
2022-11-10T08:10:30.509Z,11.11
2022-11-10T08:13:36.458Z,11.13
2022-11-10T08:16:42.350Z,11.17
2022-11-10T08:19:48.174Z,11.10
2022-11-10T08:23:02.904Z,11.07
2022-11-10T08:26:09.210Z,11.11
2022-11-10T08:29:15.178Z,11.08
2022-11-10T08:32:21.354Z,11.08
2022-11-10T08:35:30.521Z,11.09
2022-11-10T08:38:36.701Z,11.11
2022-11-10T08:41:42.715Z,11.09
2022-11-10T08:44:48.849Z,11.10
2022-11-10T08:48:02.779Z,11.21
2022-11-10T08:51:09.228Z,11.31
2022-11-10T08:54:15.233Z,11.47
2022-11-10T08:57:21.214Z,11.51
2022-11-10T09:00:28.805Z,11.61
2022-11-10T09:03:35.285Z,11.73
2022-11-10T09:06:42.926Z,11.74
2022-11-10T09:10:05.914Z,11.76
2022-11-10T09:13:15.129Z,11.75
2022-11-10T09:16:21.503Z,11.71
2022-11-10T09:19:27.429Z,11.72
2022-11-10T09:22:36.014Z,11.85
2022-11-10T09:25:43.648Z,11.87
2022-11-10T09:28:50.543Z,11.92
2022-11-10T09:31:56.599Z,11.96
2022-11-10T09:35:03.890Z,12.04
2022-11-10T09:38:09.954Z,12.06
2022-11-10T09:41:16.204Z,12.11
2022-11-10T09:44:29.632Z,12.01
2022-11-10T09:48:00.516Z,11.92
2022-11-10T09:51:17.116Z,11.87
2022-11-10T09:54:33.580Z,11.77
2022-11-10T09:57:47.712Z,11.72
2022-11-10T10:01:05.471Z,11.67
2022-11-10T10:04:20.431Z,11.64
2022-11-10T10:07:48.644Z,11.70
2022-11-10T10:10:57.624Z,11.81
2022-11-10T10:14:39.395Z,11.83
2022-11-10T10:18:25.737Z,11.78
2022-11-10T10:21:51.396Z,11.77
2022-11-10T10:25:02.147Z,11.83
2022-11-10T10:28:20.032Z,11.86
2022-11-10T10:31:32.690Z,11.88
2022-11-10T10:34:39.594Z,11.96
2022-11-10T10:37:51.185Z,12.08
2022-11-10T10:41:03.490Z,12.17
2022-11-10T10:44:19.113Z,12.28
2022-11-10T10:47:37.478Z,12.25
2022-11-10T10:50:43.631Z,12.23
2022-11-10T10:53:49.878Z,12.29
2022-11-10T10:57:05.143Z,12.30
2022-11-10T11:00:22.030Z,12.32
2022-11-10T11:03:50.109Z,12.27
2022-11-10T11:07:02.769Z,12.23
2022-11-10T11:10:24.325Z,12.26
2022-11-10T11:13:30.397Z,12.29
2022-11-10T11:16:56.654Z,12.18
2022-11-10T11:20:03.181Z,12.07
2022-11-10T11:23:15.229Z,12.10
2022-11-10T11:26:59.517Z,12.14
2022-11-10T11:30:10.668Z,12.08
2022-11-10T11:33:19.737Z,12.03
2022-11-10T11:36:39.121Z,11.88
2022-11-10T11:39:50.977Z,11.84
2022-11-10T11:43:08.310Z,11.86
2022-11-10T11:46:43.655Z,11.81
2022-11-10T11:50:35.631Z,11.73
2022-11-10T11:54:02.794Z,11.68
2022-11-10T11:57:46.630Z,11.62
2022-11-10T12:00:59.921Z,11.66
2022-11-10T12:04:30.986Z,11.68
2022-11-10T12:08:01.915Z,11.66
2022-11-10T12:11:38.878Z,11.70
2022-11-10T12:15:16.833Z,11.73
2022-11-10T12:18:36.333Z,11.74
2022-11-10T12:21:49.139Z,11.78
2022-11-10T12:25:01.660Z,11.75
2022-11-10T12:28:17.336Z,11.74
2022-11-10T12:31:26.678Z,11.78
2022-11-10T12:34:56.882Z,11.75
2022-11-10T12:38:21.738Z,11.71
2022-11-10T12:41:35.923Z,11.63
2022-11-10T12:44:54.348Z,11.61
2022-11-10T12:48:02.726Z,11.58
2022-11-10T12:51:25.787Z,11.55
2022-11-10T12:54:31.753Z,11.53
2022-11-10T12:57:38.418Z,11.50
2022-11-10T13:00:56.619Z,11.44
2022-11-10T13:04:03.138Z,11.39
2022-11-10T13:07:13.656Z,11.43
2022-11-10T13:10:26.431Z,11.43
2022-11-10T13:13:52.234Z,11.35
2022-11-10T13:17:00.434Z,11.31
2022-11-10T13:20:44.632Z,11.31
2022-11-10T13:23:50.425Z,11.26
2022-11-10T13:26:57.473Z,11.23
2022-11-10T13:30:03.701Z,11.15
2022-11-10T13:33:35.128Z,11.13
2022-11-10T13:36:43.686Z,11.09
2022-11-10T13:39:50.513Z,11.06
2022-11-10T13:42:59.556Z,11.05
2022-11-10T13:46:05.831Z,11.07
2022-11-10T13:49:33.514Z,11.12
2022-11-10T13:52:56.701Z,11.11
2022-11-10T13:56:08.507Z,11.09
2022-11-10T13:59:21.089Z,11.01
2022-11-10T14:02:39.305Z,10.99
2022-11-10T14:06:07.891Z,10.93
2022-11-10T14:09:26.966Z,10.90
2022-11-10T14:12:55.761Z,10.88
2022-11-10T14:16:02.387Z,10.88
2022-11-10T14:19:14.396Z,10.92
2022-11-10T14:22:37.981Z,10.92
2022-11-10T14:25:45.069Z,10.95
2022-11-10T14:28:51.482Z,10.95
2022-11-10T14:32:12.268Z,10.91
2022-11-10T14:35:28.108Z,10.91
2022-11-10T14:38:35.872Z,10.93
2022-11-10T14:41:49.403Z,10.94
2022-11-10T14:45:13.806Z,10.94
2022-11-10T14:48:25.800Z,10.95
2022-11-10T14:51:34.855Z,10.95
2022-11-10T14:54:46.067Z,10.90
2022-11-10T14:58:08.208Z,10.90
2022-11-10T15:01:27.722Z,10.91
2022-11-10T15:04:36.558Z,10.85
2022-11-10T15:07:44.987Z,10.85
2022-11-10T15:10:56.460Z,10.88
2022-11-10T15:14:02.750Z,10.86
2022-11-10T15:17:11.249Z,10.83
2022-11-10T15:20:38.656Z,10.81
2022-11-10T15:23:52.457Z,10.78
2022-11-10T15:26:58.571Z,10.82
2022-11-10T15:30:23.051Z,10.83
2022-11-10T15:33:34.267Z,10.78
2022-11-10T15:36:40.430Z,10.78
2022-11-10T15:39:46.548Z,10.77
2022-11-10T15:43:28.033Z,10.78
2022-11-10T15:46:34.536Z,10.73
2022-11-10T15:49:41.212Z,10.71
2022-11-10T15:52:47.310Z,10.70
2022-11-10T15:55:53.428Z,10.67
2022-11-10T15:59:02.404Z,10.63
2022-11-10T16:02:20.264Z,10.60
2022-11-10T16:05:26.202Z,10.56
2022-11-10T16:08:32.335Z,10.56
2022-11-10T16:11:40.637Z,10.53
2022-11-10T16:14:49.812Z,10.51
2022-11-10T16:17:55.951Z,10.50
2022-11-10T16:21:02.075Z,10.50
2022-11-10T16:24:08.190Z,10.46
2022-11-10T16:27:14.959Z,10.43
2022-11-10T16:30:21.174Z,10.39
2022-11-10T16:33:29.140Z,10.38
2022-11-10T16:36:36.597Z,10.37
2022-11-10T16:39:42.827Z,10.34
2022-11-10T16:42:51.472Z,10.33
2022-11-10T16:46:00.384Z,10.35
2022-11-10T16:49:15.193Z,10.40
2022-11-10T16:52:22.717Z,10.32
2022-11-10T16:55:29.527Z,10.27
2022-11-10T16:58:35.951Z,10.28
2022-11-10T17:01:44.260Z,10.27
2022-11-10T17:04:50.561Z,10.25
2022-11-10T17:07:58.857Z,10.20
2022-11-10T17:11:05.238Z,10.20
2022-11-10T17:14:13.067Z,10.20
2022-11-10T17:17:20.061Z,10.21
2022-11-10T17:20:34.511Z,10.26
2022-11-10T17:23:40.971Z,10.30
2022-11-10T17:26:47.800Z,10.27
2022-11-10T17:29:54.117Z,10.24
2022-11-10T17:33:05.099Z,10.24
2022-11-10T17:36:15.827Z,10.22
2022-11-10T17:39:22.695Z,10.22
2022-11-10T17:42:29.014Z,10.20
2022-11-10T17:45:35.405Z,10.16
2022-11-10T17:48:42.074Z,10.15
2022-11-10T17:51:48.206Z,10.10
2022-11-10T17:54:54.663Z,10.06
2022-11-10T17:58:01.216Z,10.05
2022-11-10T18:01:19.096Z,10.03
2022-11-10T18:04:26.476Z,9.99
2022-11-10T18:07:33.220Z,10.00
2022-11-10T18:10:46.446Z,10.00
2022-11-10T18:13:52.571Z,10.02
2022-11-10T18:16:58.619Z,10.02
2022-11-10T18:20:05.643Z,10.02
2022-11-10T18:23:12.694Z,9.99
2022-11-10T18:26:18.684Z,9.98
2022-11-10T18:29:24.783Z,9.96
2022-11-10T18:32:30.807Z,10.01
2022-11-10T18:35:39.301Z,10.01
2022-11-10T18:38:45.451Z,9.97
2022-11-10T18:41:52.654Z,9.99
2022-11-10T18:44:58.819Z,9.99
2022-11-10T18:48:05.384Z,9.99
2022-11-10T18:51:11.710Z,10.02
2022-11-10T18:54:18.111Z,9.96
2022-11-10T18:57:24.209Z,9.95
2022-11-10T19:00:30.548Z,9.93
2022-11-10T19:03:37.089Z,9.97
2022-11-10T19:06:43.126Z,10.04
2022-11-10T19:09:49.421Z,10.10
2022-11-10T19:12:56.020Z,10.16
2022-11-10T19:16:09.944Z,10.14
2022-11-10T19:19:16.384Z,10.12
2022-11-10T19:22:22.754Z,10.09
2022-11-10T19:25:29.780Z,10.06
2022-11-10T19:28:37.269Z,10.03
2022-11-10T19:31:44.196Z,10.03
2022-11-10T19:34:50.577Z,10.01
2022-11-10T19:37:56.862Z,9.98
2022-11-10T19:41:06.222Z,10.02
2022-11-10T19:44:12.611Z,10.05
2022-11-10T19:47:18.559Z,9.98
2022-11-10T19:50:24.533Z,9.99
2022-11-10T19:53:31.725Z,9.97
2022-11-10T19:56:37.707Z,10.03
2022-11-10T19:59:43.921Z,10.06
2022-11-10T20:02:52.068Z,10.03
2022-11-10T20:06:00.832Z,10.05
2022-11-10T20:09:06.776Z,10.03
2022-11-10T20:12:13.193Z,10.00
2022-11-10T20:15:19.475Z,10.00
2022-11-10T20:18:25.872Z,9.97
2022-11-10T20:21:32.046Z,10.04
2022-11-10T20:24:38.524Z,10.02
2022-11-10T20:27:44.884Z,10.06
2022-11-10T20:30:51.239Z,10.11
2022-11-10T20:33:57.895Z,10.12
2022-11-10T20:37:04.304Z,10.15
2022-11-10T20:40:42.248Z,10.13
2022-11-10T20:43:40.132Z,10.08
2022-11-10T20:46:54.484Z,10.05
2022-11-10T20:50:01.076Z,10.02
2022-11-10T20:53:07.418Z,10.01
2022-11-10T20:56:15.657Z,10.00
2022-11-10T20:59:22.022Z,10.02
2022-11-10T21:02:28.130Z,10.05
2022-11-10T21:05:34.749Z,10.11
2022-11-10T21:08:41.090Z,10.09
2022-11-10T21:12:06.126Z,10.09
2022-11-10T21:15:12.444Z,10.12
2022-11-10T21:18:19.586Z,10.16
2022-11-10T21:21:28.063Z,10.16
2022-11-10T21:24:34.514Z,10.13
2022-11-10T21:27:40.973Z,10.12
2022-11-10T21:30:47.464Z,10.11
2022-11-10T21:33:57.909Z,10.07
2022-11-10T21:37:04.009Z,10.05
2022-11-10T21:40:11.436Z,10.10
2022-11-10T21:43:17.527Z,10.11
2022-11-10T21:46:24.688Z,10.04
2022-11-10T21:49:31.174Z,10.01
2022-11-10T21:52:37.516Z,9.99
2022-11-10T21:55:43.971Z,10.00
2022-11-10T21:58:50.087Z,9.98
2022-11-10T22:01:56.554Z,9.97
2022-11-10T22:05:03.352Z,10.02
2022-11-10T22:08:10.690Z,10.02
2022-11-10T22:11:38.212Z,10.01
2022-11-10T22:15:03.106Z,10.04
2022-11-10T22:18:37.443Z,10.00
2022-11-10T22:21:44.446Z,9.98
2022-11-10T22:24:50.868Z,9.96
2022-11-10T22:27:57.638Z,9.93
2022-11-10T22:31:04.777Z,9.88
2022-11-10T22:34:11.241Z,9.89
2022-11-10T22:37:17.707Z,9.89
2022-11-10T22:40:42.934Z,9.90
2022-11-10T22:44:03.900Z,9.88
2022-11-10T22:47:09.898Z,9.85
2022-11-10T22:50:16.544Z,9.86
2022-11-10T22:53:23.919Z,9.83
2022-11-10T22:56:32.185Z,9.84
2022-11-10T22:59:38.600Z,9.83
2022-11-10T23:02:45.159Z,9.84
2022-11-10T23:05:56.314Z,9.85
2022-11-10T23:09:03.389Z,9.86
2022-11-10T23:12:09.485Z,9.86
2022-11-10T23:15:15.870Z,9.89
2022-11-10T23:18:22.741Z,9.89
2022-11-10T23:21:30.434Z,9.90
2022-11-10T23:24:36.803Z,9.90
2022-11-10T23:27:43.473Z,9.88
2022-11-10T23:30:50.353Z,9.88
2022-11-10T23:33:57.867Z,9.88
2022-11-10T23:37:04.095Z,9.85
2022-11-10T23:40:10.772Z,9.84
2022-11-10T23:43:17.247Z,9.88
2022-11-10T23:46:23.740Z,9.90
2022-11-10T23:49:30.258Z,9.87
2022-11-10T23:52:36.362Z,9.84
2022-11-10T23:55:43.120Z,9.85
2022-11-10T23:58:49.514Z,9.90
